sensor_id;sensor_type;location;lat;lon;timestamp;P1;durP1;ratioP1;P2;durP2;ratioP2
25231;SDS011;13176;51.140;6.290;2023-01-15T00:00:17;31.35;;;29.52;;
25231;SDS011;13176;51.140;6.290;2023-01-15T00:02:43;29.25;;;27.65;;
25231;SDS011;13176;51.140;6.290;2023-01-15T00:05:10;34.33;;;32.08;;
25231;SDS011;13176;51.140;6.290;2023-01-15T00:07:36;32.47;;;30.67;;
25231;SDS011;13176;51.140;6.290;2023-01-15T00:10:03;31.75;;;29.75;;
25231;SDS011;13176;51.140;6.290;2023-01-15T00:12:30;28.80;;;27.05;;
25231;SDS011;13176;51.140;6.290;2023-01-15T00:14:56;30.80;;;29.02;;
25231;SDS011;13176;51.140;6.290;2023-01-15T00:17:23;28.13;;;26.45;;
25231;SDS011;13176;51.140;6.290;2023-01-15T00:19:49;26.40;;;24.98;;
25231;SDS011;13176;51.140;6.290;2023-01-15T00:22:16;26.83;;;25.15;;
25231;SDS011;13176;51.140;6.290;2023-01-15T00:24:42;27.00;;;25.42;;
25231;SDS011;13176;51.140;6.290;2023-01-15T00:27:27;22.85;;;21.67;;
25231;SDS011;13176;51.140;6.290;2023-01-15T00:30:07;23.98;;;22.45;;
25231;SDS011;13176;51.140;6.290;2023-01-15T00:32:36;24.33;;;22.95;;
25231;SDS011;13176;51.140;6.290;2023-01-15T00:35:03;24.25;;;22.90;;
25231;SDS011;13176;51.140;6.290;2023-01-15T00:37:29;23.00;;;21.70;;
25231;SDS011;13176;51.140;6.290;2023-01-15T00:39:56;24.98;;;23.55;;
25231;SDS011;13176;51.140;6.290;2023-01-15T00:42:22;27.05;;;25.48;;
25231;SDS011;13176;51.140;6.290;2023-01-15T00:44:49;23.70;;;22.33;;
25231;SDS011;13176;51.140;6.290;2023-01-15T00:47:15;24.50;;;23.05;;
25231;SDS011;13176;51.140;6.290;2023-01-15T00:49:42;25.50;;;23.90;;
25231;SDS011;13176;51.140;6.290;2023-01-15T00:52:09;23.25;;;21.75;;
25231;SDS011;13176;51.140;6.290;2023-01-15T00:54:36;23.20;;;21.52;;
25231;SDS011;13176;51.140;6.290;2023-01-15T00:57:03;23.23;;;21.75;;
25231;SDS011;13176;51.140;6.290;2023-01-15T00:59:29;24.88;;;23.20;;
25231;SDS011;13176;51.140;6.290;2023-01-15T01:01:56;23.88;;;22.48;;
25231;SDS011;13176;51.140;6.290;2023-01-15T01:04:22;19.15;;;18.00;;
25231;SDS011;13176;51.140;6.290;2023-01-15T01:06:49;25.67;;;24.15;;
25231;SDS011;13176;51.140;6.290;2023-01-15T01:09:16;23.17;;;21.88;;
25231;SDS011;13176;51.140;6.290;2023-01-15T01:11:42;20.40;;;19.30;;
25231;SDS011;13176;51.140;6.290;2023-01-15T01:14:09;18.30;;;17.20;;
25231;SDS011;13176;51.140;6.290;2023-01-15T01:16:39;15.90;;;14.68;;
25231;SDS011;13176;51.140;6.290;2023-01-15T01:19:08;15.25;;;14.43;;
25231;SDS011;13176;51.140;6.290;2023-01-15T01:21:38;14.50;;;13.70;;
25231;SDS011;13176;51.140;6.290;2023-01-15T01:24:05;17.55;;;16.45;;
25231;SDS011;13176;51.140;6.290;2023-01-15T01:26:33;16.73;;;15.68;;
25231;SDS011;13176;51.140;6.290;2023-01-15T01:29:00;15.80;;;14.77;;
25231;SDS011;13176;51.140;6.290;2023-01-15T01:31:26;15.15;;;14.35;;
25231;SDS011;13176;51.140;6.290;2023-01-15T01:33:53;15.63;;;14.73;;
25231;SDS011;13176;51.140;6.290;2023-01-15T01:36:28;14.32;;;13.43;;
25231;SDS011;13176;51.140;6.290;2023-01-15T01:38:56;16.00;;;15.07;;
25231;SDS011;13176;51.140;6.290;2023-01-15T01:41:23;17.02;;;16.08;;
25231;SDS011;13176;51.140;6.290;2023-01-15T01:46:20;15.27;;;14.38;;
25231;SDS011;13176;51.140;6.290;2023-01-15T01:48:47;13.95;;;13.25;;
25231;SDS011;13176;51.140;6.290;2023-01-15T01:51:16;15.02;;;14.20;;
25231;SDS011;13176;51.140;6.290;2023-01-15T01:53:44;14.52;;;13.73;;
25231;SDS011;13176;51.140;6.290;2023-01-15T01:56:11;14.45;;;13.55;;
25231;SDS011;13176;51.140;6.290;2023-01-15T01:58:37;17.70;;;16.60;;
25231;SDS011;13176;51.140;6.290;2023-01-15T02:01:04;14.63;;;13.88;;
25231;SDS011;13176;51.140;6.290;2023-01-15T02:03:35;13.90;;;13.18;;
25231;SDS011;13176;51.140;6.290;2023-01-15T02:06:05;14.63;;;13.82;;
25231;SDS011;13176;51.140;6.290;2023-01-15T02:08:33;15.98;;;14.90;;
25231;SDS011;13176;51.140;6.290;2023-01-15T02:11:00;15.38;;;14.43;;
25231;SDS011;13176;51.140;6.290;2023-01-15T02:16:02;15.32;;;13.93;;
25231;SDS011;13176;51.140;6.290;2023-01-15T02:18:39;14.50;;;13.45;;
25231;SDS011;13176;51.140;6.290;2023-01-15T02:23:48;15.13;;;14.23;;
25231;SDS011;13176;51.140;6.290;2023-01-15T02:28:55;15.45;;;14.45;;
25231;SDS011;13176;51.140;6.290;2023-01-15T02:31:32;15.88;;;14.43;;
25231;SDS011;13176;51.140;6.290;2023-01-15T02:34:04;16.42;;;15.32;;
25231;SDS011;13176;51.140;6.290;2023-01-15T02:36:36;18.45;;;17.40;;
25231;SDS011;13176;51.140;6.290;2023-01-15T02:39:09;16.00;;;15.02;;
25231;SDS011;13176;51.140;6.290;2023-01-15T02:41:39;15.30;;;14.38;;
25231;SDS011;13176;51.140;6.290;2023-01-15T02:44:10;15.00;;;14.02;;
25231;SDS011;13176;51.140;6.290;2023-01-15T02:46:41;15.70;;;14.68;;
25231;SDS011;13176;51.140;6.290;2023-01-15T02:49:11;16.27;;;15.05;;
25231;SDS011;13176;51.140;6.290;2023-01-15T02:51:44;13.70;;;12.80;;
25231;SDS011;13176;51.140;6.290;2023-01-15T02:54:16;15.65;;;14.55;;
25231;SDS011;13176;51.140;6.290;2023-01-15T02:56:45;14.95;;;14.05;;
25231;SDS011;13176;51.140;6.290;2023-01-15T02:59:17;15.32;;;14.35;;
25231;SDS011;13176;51.140;6.290;2023-01-15T03:01:56;12.52;;;11.63;;
25231;SDS011;13176;51.140;6.290;2023-01-15T03:09:40;14.55;;;13.27;;
25231;SDS011;13176;51.140;6.290;2023-01-15T03:14:51;12.52;;;11.55;;
25231;SDS011;13176;51.140;6.290;2023-01-15T03:19:55;10.90;;;10.20;;
25231;SDS011;13176;51.140;6.290;2023-01-15T03:22:31;13.30;;;12.05;;
25231;SDS011;13176;51.140;6.290;2023-01-15T03:25:15;14.27;;;13.07;;
25231;SDS011;13176;51.140;6.290;2023-01-15T03:27:48;13.00;;;12.20;;
25231;SDS011;13176;51.140;6.290;2023-01-15T03:30:18;13.48;;;12.45;;
25231;SDS011;13176;51.140;6.290;2023-01-15T03:32:47;15.30;;;14.13;;
25231;SDS011;13176;51.140;6.290;2023-01-15T03:38:13;11.75;;;11.00;;
25231;SDS011;13176;51.140;6.290;2023-01-15T03:40:47;11.55;;;10.52;;
25231;SDS011;13176;51.140;6.290;2023-01-15T03:43:18;13.15;;;12.18;;
25231;SDS011;13176;51.140;6.290;2023-01-15T03:46:19;11.57;;;10.77;;
25231;SDS011;13176;51.140;6.290;2023-01-15T03:49:01;12.40;;;11.43;;
25231;SDS011;13176;51.140;6.290;2023-01-15T03:54:10;12.73;;;11.82;;
25231;SDS011;13176;51.140;6.290;2023-01-15T03:56:48;12.18;;;11.13;;
25231;SDS011;13176;51.140;6.290;2023-01-15T03:59:22;12.82;;;12.00;;
25231;SDS011;13176;51.140;6.290;2023-01-15T04:01:54;12.30;;;11.23;;
25231;SDS011;13176;51.140;6.290;2023-01-15T04:04:22;14.60;;;13.65;;
25231;SDS011;13176;51.140;6.290;2023-01-15T04:06:51;13.80;;;12.52;;
25231;SDS011;13176;51.140;6.290;2023-01-15T04:09:19;11.95;;;11.18;;
25231;SDS011;13176;51.140;6.290;2023-01-15T04:11:46;12.95;;;12.00;;
25231;SDS011;13176;51.140;6.290;2023-01-15T04:14:13;15.00;;;13.32;;
25231;SDS011;13176;51.140;6.290;2023-01-15T04:16:40;13.75;;;12.75;;
25231;SDS011;13176;51.140;6.290;2023-01-15T04:19:06;13.90;;;12.65;;
25231;SDS011;13176;51.140;6.290;2023-01-15T04:21:33;11.88;;;11.05;;
25231;SDS011;13176;51.140;6.290;2023-01-15T04:23:59;12.65;;;11.90;;
25231;SDS011;13176;51.140;6.290;2023-01-15T04:26:26;15.82;;;14.65;;
25231;SDS011;13176;51.140;6.290;2023-01-15T04:28:52;14.20;;;12.80;;
25231;SDS011;13176;51.140;6.290;2023-01-15T04:31:18;14.95;;;13.88;;
25231;SDS011;13176;51.140;6.290;2023-01-15T04:33:45;11.80;;;10.95;;
25231;SDS011;13176;51.140;6.290;2023-01-15T04:36:12;14.32;;;13.05;;
25231;SDS011;13176;51.140;6.290;2023-01-15T04:38:39;14.57;;;13.52;;
25231;SDS011;13176;51.140;6.290;2023-01-15T04:41:06;13.75;;;12.68;;
25231;SDS011;13176;51.140;6.290;2023-01-15T04:43:51;13.35;;;12.40;;
25231;SDS011;13176;51.140;6.290;2023-01-15T04:46:42;14.60;;;13.50;;
25231;SDS011;13176;51.140;6.290;2023-01-15T04:49:14;12.77;;;11.63;;
25231;SDS011;13176;51.140;6.290;2023-01-15T04:51:42;17.40;;;15.95;;
25231;SDS011;13176;51.140;6.290;2023-01-15T04:54:09;14.82;;;13.63;;
25231;SDS011;13176;51.140;6.290;2023-01-15T04:56:39;15.80;;;14.35;;
25231;SDS011;13176;51.140;6.290;2023-01-15T04:59:07;14.98;;;13.95;;
25231;SDS011;13176;51.140;6.290;2023-01-15T05:01:34;13.90;;;12.55;;
25231;SDS011;13176;51.140;6.290;2023-01-15T05:04:01;17.00;;;15.68;;
25231;SDS011;13176;51.140;6.290;2023-01-15T05:06:28;15.05;;;13.65;;
25231;SDS011;13176;51.140;6.290;2023-01-15T05:08:56;25.55;;;23.77;;
25231;SDS011;13176;51.140;6.290;2023-01-15T05:11:23;14.25;;;13.18;;
25231;SDS011;13176;51.140;6.290;2023-01-15T05:13:50;14.40;;;13.02;;
25231;SDS011;13176;51.140;6.290;2023-01-15T05:16:17;14.27;;;13.02;;
25231;SDS011;13176;51.140;6.290;2023-01-15T05:18:45;15.27;;;14.00;;
25231;SDS011;13176;51.140;6.290;2023-01-15T05:21:14;13.48;;;12.60;;
25231;SDS011;13176;51.140;6.290;2023-01-15T05:23:52;13.45;;;12.32;;
25231;SDS011;13176;51.140;6.290;2023-01-15T05:26:20;13.43;;;12.27;;
25231;SDS011;13176;51.140;6.290;2023-01-15T05:28:47;14.80;;;13.35;;
25231;SDS011;13176;51.140;6.290;2023-01-15T05:31:14;14.45;;;13.15;;
25231;SDS011;13176;51.140;6.290;2023-01-15T05:33:42;11.95;;;11.13;;
25231;SDS011;13176;51.140;6.290;2023-01-15T05:36:11;13.23;;;12.38;;
25231;SDS011;13176;51.140;6.290;2023-01-15T05:38:39;11.95;;;10.88;;
25231;SDS011;13176;51.140;6.290;2023-01-15T05:41:07;14.93;;;13.80;;
25231;SDS011;13176;51.140;6.290;2023-01-15T05:43:55;14.00;;;12.85;;
25231;SDS011;13176;51.140;6.290;2023-01-15T05:46:24;14.50;;;13.45;;
25231;SDS011;13176;51.140;6.290;2023-01-15T05:48:50;14.43;;;13.07;;
25231;SDS011;13176;51.140;6.290;2023-01-15T05:51:17;14.70;;;13.63;;
25231;SDS011;13176;51.140;6.290;2023-01-15T05:53:43;16.40;;;14.82;;
25231;SDS011;13176;51.140;6.290;2023-01-15T05:56:10;14.35;;;13.23;;
25231;SDS011;13176;51.140;6.290;2023-01-15T05:58:36;14.48;;;13.45;;
25231;SDS011;13176;51.140;6.290;2023-01-15T06:01:07;13.95;;;12.80;;
25231;SDS011;13176;51.140;6.290;2023-01-15T06:03:34;14.73;;;13.65;;
25231;SDS011;13176;51.140;6.290;2023-01-15T06:06:01;14.32;;;13.02;;
25231;SDS011;13176;51.140;6.290;2023-01-15T06:08:27;13.25;;;12.25;;
25231;SDS011;13176;51.140;6.290;2023-01-15T06:10:54;13.90;;;12.90;;
25231;SDS011;13176;51.140;6.290;2023-01-15T06:13:20;14.35;;;13.10;;
25231;SDS011;13176;51.140;6.290;2023-01-15T06:15:47;12.02;;;10.93;;
25231;SDS011;13176;51.140;6.290;2023-01-15T06:18:13;13.27;;;12.27;;
25231;SDS011;13176;51.140;6.290;2023-01-15T06:20:40;12.85;;;11.85;;
25231;SDS011;13176;51.140;6.290;2023-01-15T06:23:07;13.50;;;12.35;;
25231;SDS011;13176;51.140;6.290;2023-01-15T06:25:35;13.02;;;11.63;;
25231;SDS011;13176;51.140;6.290;2023-01-15T06:28:03;12.50;;;11.45;;
25231;SDS011;13176;51.140;6.290;2023-01-15T06:30:30;12.18;;;11.48;;
25231;SDS011;13176;51.140;6.290;2023-01-15T06:32:56;11.18;;;9.93;;
25231;SDS011;13176;51.140;6.290;2023-01-15T06:35:23;10.73;;;9.98;;
25231;SDS011;13176;51.140;6.290;2023-01-15T06:37:49;11.13;;;10.23;;
25231;SDS011;13176;51.140;6.290;2023-01-15T06:40:16;11.13;;;10.20;;
25231;SDS011;13176;51.140;6.290;2023-01-15T06:42:43;9.48;;;8.82;;
25231;SDS011;13176;51.140;6.290;2023-01-15T06:45:31;9.90;;;9.13;;
25231;SDS011;13176;51.140;6.290;2023-01-15T06:48:21;9.45;;;8.75;;
25231;SDS011;13176;51.140;6.290;2023-01-15T06:50:48;10.90;;;9.88;;
25231;SDS011;13176;51.140;6.290;2023-01-15T06:53:14;12.75;;;10.40;;
25231;SDS011;13176;51.140;6.290;2023-01-15T06:55:41;11.05;;;9.65;;
25231;SDS011;13176;51.140;6.290;2023-01-15T06:58:07;10.13;;;9.25;;
25231;SDS011;13176;51.140;6.290;2023-01-15T07:00:33;10.30;;;9.63;;
25231;SDS011;13176;51.140;6.290;2023-01-15T07:03:00;11.13;;;10.18;;
25231;SDS011;13176;51.140;6.290;2023-01-15T07:05:27;9.90;;;9.18;;
25231;SDS011;13176;51.140;6.290;2023-01-15T07:07:54;12.90;;;12.00;;
25231;SDS011;13176;51.140;6.290;2023-01-15T07:10:22;11.70;;;10.70;;
25231;SDS011;13176;51.140;6.290;2023-01-15T07:12:48;12.23;;;10.75;;
25231;SDS011;13176;51.140;6.290;2023-01-15T07:15:15;9.13;;;8.52;;
25231;SDS011;13176;51.140;6.290;2023-01-15T07:17:41;9.98;;;9.13;;
25231;SDS011;13176;51.140;6.290;2023-01-15T07:20:08;12.02;;;10.65;;
25231;SDS011;13176;51.140;6.290;2023-01-15T07:22:35;10.65;;;9.00;;
25231;SDS011;13176;51.140;6.290;2023-01-15T07:25:02;10.02;;;9.27;;
25231;SDS011;13176;51.140;6.290;2023-01-15T07:27:28;9.30;;;8.38;;
25231;SDS011;13176;51.140;6.290;2023-01-15T07:29:54;8.70;;;7.95;;
25231;SDS011;13176;51.140;6.290;2023-01-15T07:32:21;8.98;;;8.20;;
25231;SDS011;13176;51.140;6.290;2023-01-15T07:34:47;9.25;;;8.50;;
25231;SDS011;13176;51.140;6.290;2023-01-15T07:37:14;10.23;;;9.43;;
25231;SDS011;13176;51.140;6.290;2023-01-15T07:39:40;8.35;;;7.65;;
25231;SDS011;13176;51.140;6.290;2023-01-15T07:42:08;9.70;;;8.93;;
25231;SDS011;13176;51.140;6.290;2023-01-15T07:44:54;8.52;;;7.75;;
25231;SDS011;13176;51.140;6.290;2023-01-15T07:47:38;7.05;;;6.55;;
25231;SDS011;13176;51.140;6.290;2023-01-15T07:50:23;8.75;;;7.65;;
25231;SDS011;13176;51.140;6.290;2023-01-15T07:52:53;8.07;;;7.57;;
25231;SDS011;13176;51.140;6.290;2023-01-15T07:55:22;6.88;;;6.20;;
25231;SDS011;13176;51.140;6.290;2023-01-15T07:57:49;7.18;;;6.60;;
25231;SDS011;13176;51.140;6.290;2023-01-15T08:00:18;6.57;;;6.03;;
25231;SDS011;13176;51.140;6.290;2023-01-15T08:02:50;7.10;;;6.38;;
25231;SDS011;13176;51.140;6.290;2023-01-15T08:05:17;6.68;;;5.90;;
25231;SDS011;13176;51.140;6.290;2023-01-15T08:07:44;5.70;;;5.30;;
25231;SDS011;13176;51.140;6.290;2023-01-15T08:10:11;5.80;;;5.25;;
25231;SDS011;13176;51.140;6.290;2023-01-15T08:12:39;5.90;;;5.50;;
25231;SDS011;13176;51.140;6.290;2023-01-15T08:15:31;5.88;;;5.43;;
25231;SDS011;13176;51.140;6.290;2023-01-15T08:18:00;6.43;;;6.03;;
25231;SDS011;13176;51.140;6.290;2023-01-15T08:20:26;6.40;;;6.00;;
25231;SDS011;13176;51.140;6.290;2023-01-15T08:22:53;6.00;;;5.50;;
25231;SDS011;13176;51.140;6.290;2023-01-15T08:25:21;6.10;;;5.75;;
25231;SDS011;13176;51.140;6.290;2023-01-15T08:27:49;6.05;;;5.65;;
25231;SDS011;13176;51.140;6.290;2023-01-15T08:30:18;5.88;;;5.53;;
25231;SDS011;13176;51.140;6.290;2023-01-15T08:32:46;6.45;;;6.07;;
25231;SDS011;13176;51.140;6.290;2023-01-15T08:35:12;6.88;;;6.38;;
25231;SDS011;13176;51.140;6.290;2023-01-15T08:37:39;6.80;;;6.35;;
25231;SDS011;13176;51.140;6.290;2023-01-15T08:40:07;7.30;;;6.30;;
25231;SDS011;13176;51.140;6.290;2023-01-15T08:42:34;6.82;;;6.43;;
25231;SDS011;13176;51.140;6.290;2023-01-15T08:45:01;7.50;;;7.03;;
25231;SDS011;13176;51.140;6.290;2023-01-15T08:47:27;8.25;;;7.75;;
25231;SDS011;13176;51.140;6.290;2023-01-15T08:49:54;8.55;;;7.95;;
25231;SDS011;13176;51.140;6.290;2023-01-15T08:52:20;8.98;;;8.18;;
25231;SDS011;13176;51.140;6.290;2023-01-15T08:54:46;9.35;;;8.55;;
25231;SDS011;13176;51.140;6.290;2023-01-15T08:57:13;9.43;;;8.48;;
25231;SDS011;13176;51.140;6.290;2023-01-15T08:59:39;9.82;;;9.07;;
25231;SDS011;13176;51.140;6.290;2023-01-15T09:02:11;10.80;;;10.00;;
25231;SDS011;13176;51.140;6.290;2023-01-15T09:04:40;10.77;;;9.75;;
25231;SDS011;13176;51.140;6.290;2023-01-15T09:07:06;12.88;;;11.13;;
25231;SDS011;13176;51.140;6.290;2023-01-15T09:09:33;14.35;;;13.27;;
25231;SDS011;13176;51.140;6.290;2023-01-15T09:12:00;10.90;;;9.57;;
25231;SDS011;13176;51.140;6.290;2023-01-15T09:14:26;11.30;;;10.30;;
25231;SDS011;13176;51.140;6.290;2023-01-15T09:17:12;10.45;;;9.73;;
25231;SDS011;13176;51.140;6.290;2023-01-15T09:19:39;10.90;;;9.77;;
25231;SDS011;13176;51.140;6.290;2023-01-15T09:22:05;13.13;;;11.05;;
25231;SDS011;13176;51.140;6.290;2023-01-15T09:24:31;10.68;;;9.75;;
25231;SDS011;13176;51.140;6.290;2023-01-15T09:26:58;10.15;;;9.27;;
25231;SDS011;13176;51.140;6.290;2023-01-15T09:29:24;9.23;;;8.50;;
25231;SDS011;13176;51.140;6.290;2023-01-15T09:31:51;11.27;;;8.43;;
25231;SDS011;13176;51.140;6.290;2023-01-15T09:34:17;8.38;;;7.57;;
25231;SDS011;13176;51.140;6.290;2023-01-15T09:36:43;8.38;;;7.15;;
25231;SDS011;13176;51.140;6.290;2023-01-15T09:39:12;10.60;;;7.55;;
25231;SDS011;13176;51.140;6.290;2023-01-15T09:47:46;9.10;;;6.00;;
25231;SDS011;13176;51.140;6.290;2023-01-15T09:50:29;15.43;;;6.57;;
25231;SDS011;13176;51.140;6.290;2023-01-15T09:56:20;7.50;;;6.10;;
25231;SDS011;13176;51.140;6.290;2023-01-15T09:58:49;10.73;;;6.40;;
25231;SDS011;13176;51.140;6.290;2023-01-15T10:01:17;6.88;;;6.18;;
25231;SDS011;13176;51.140;6.290;2023-01-15T10:03:52;15.90;;;14.77;;
25231;SDS011;13176;51.140;6.290;2023-01-15T10:09:16;7.47;;;6.13;;
25231;SDS011;13176;51.140;6.290;2023-01-15T10:11:50;7.03;;;6.30;;
25231;SDS011;13176;51.140;6.290;2023-01-15T10:14:44;9.45;;;6.78;;
25231;SDS011;13176;51.140;6.290;2023-01-15T10:17:21;7.35;;;6.75;;
25231;SDS011;13176;51.140;6.290;2023-01-15T10:19:52;7.85;;;6.30;;
25231;SDS011;13176;51.140;6.290;2023-01-15T10:22:26;7.78;;;6.15;;
25231;SDS011;13176;51.140;6.290;2023-01-15T10:27:34;10.50;;;6.43;;
25231;SDS011;13176;51.140;6.290;2023-01-15T10:33:31;7.07;;;6.35;;
25231;SDS011;13176;51.140;6.290;2023-01-15T10:36:06;7.40;;;6.70;;
25231;SDS011;13176;51.140;6.290;2023-01-15T10:38:48;9.13;;;6.30;;
25231;SDS011;13176;51.140;6.290;2023-01-15T10:47:27;8.63;;;6.00;;
25231;SDS011;13176;51.140;6.290;2023-01-15T10:49:59;7.15;;;5.15;;
25231;SDS011;13176;51.140;6.290;2023-01-15T10:52:31;8.00;;;6.72;;
25231;SDS011;13176;51.140;6.290;2023-01-15T10:55:02;9.00;;;7.88;;
25231;SDS011;13176;51.140;6.290;2023-01-15T11:00:36;4.80;;;4.40;;
25231;SDS011;13176;51.140;6.290;2023-01-15T11:03:08;7.40;;;4.65;;
25231;SDS011;13176;51.140;6.290;2023-01-15T11:05:40;4.78;;;4.38;;
25231;SDS011;13176;51.140;6.290;2023-01-15T11:08:10;4.72;;;4.10;;
25231;SDS011;13176;51.140;6.290;2023-01-15T11:14:31;5.85;;;4.50;;
25231;SDS011;13176;51.140;6.290;2023-01-15T11:17:40;6.38;;;5.60;;
25231;SDS011;13176;51.140;6.290;2023-01-15T11:20:43;4.72;;;4.43;;
25231;SDS011;13176;51.140;6.290;2023-01-15T11:23:12;5.07;;;4.72;;
25231;SDS011;13176;51.140;6.290;2023-01-15T11:26:15;6.43;;;5.03;;
25231;SDS011;13176;51.140;6.290;2023-01-15T11:28:40;7.03;;;4.78;;
25231;SDS011;13176;51.140;6.290;2023-01-15T11:31:10;5.80;;;4.68;;
25231;SDS011;13176;51.140;6.290;2023-01-15T11:33:37;4.93;;;4.53;;
25231;SDS011;13176;51.140;6.290;2023-01-15T11:36:05;6.43;;;4.68;;
25231;SDS011;13176;51.140;6.290;2023-01-15T11:38:44;5.13;;;4.53;;
25231;SDS011;13176;51.140;6.290;2023-01-15T11:43:52;4.72;;;3.92;;
25231;SDS011;13176;51.140;6.290;2023-01-15T11:46:40;4.18;;;3.72;;
25231;SDS011;13176;51.140;6.290;2023-01-15T11:49:25;5.63;;;4.97;;
25231;SDS011;13176;51.140;6.290;2023-01-15T11:52:13;4.43;;;3.88;;
25231;SDS011;13176;51.140;6.290;2023-01-15T11:54:43;5.80;;;3.97;;
25231;SDS011;13176;51.140;6.290;2023-01-15T12:02:46;5.93;;;5.30;;
25231;SDS011;13176;51.140;6.290;2023-01-15T12:05:17;4.18;;;3.88;;
25231;SDS011;13176;51.140;6.290;2023-01-15T12:07:50;4.38;;;4.18;;
25231;SDS011;13176;51.140;6.290;2023-01-15T12:10:20;4.72;;;4.43;;
25231;SDS011;13176;51.140;6.290;2023-01-15T12:13:23;5.43;;;5.03;;
25231;SDS011;13176;51.140;6.290;2023-01-15T12:16:01;7.13;;;6.65;;
25231;SDS011;13176;51.140;6.290;2023-01-15T12:29:37;6.80;;;4.07;;
25231;SDS011;13176;51.140;6.290;2023-01-15T12:32:10;10.98;;;10.23;;
25231;SDS011;13176;51.140;6.290;2023-01-15T12:34:48;4.95;;;4.40;;
25231;SDS011;13176;51.140;6.290;2023-01-15T12:37:22;3.60;;;3.40;;
25231;SDS011;13176;51.140;6.290;2023-01-15T12:42:40;5.03;;;4.30;;
25231;SDS011;13176;51.140;6.290;2023-01-15T12:45:30;6.63;;;4.40;;
25231;SDS011;13176;51.140;6.290;2023-01-15T12:48:11;8.38;;;4.50;;
25231;SDS011;13176;51.140;6.290;2023-01-15T12:50:40;5.15;;;4.75;;
25231;SDS011;13176;51.140;6.290;2023-01-15T12:53:16;7.40;;;3.65;;
25231;SDS011;13176;51.140;6.290;2023-01-15T12:59:15;4.57;;;4.03;;
25231;SDS011;13176;51.140;6.290;2023-01-15T13:04:56;5.47;;;4.10;;
25231;SDS011;13176;51.140;6.290;2023-01-15T13:07:35;4.47;;;4.07;;
25231;SDS011;13176;51.140;6.290;2023-01-15T13:10:16;4.72;;;3.47;;
25231;SDS011;13176;51.140;6.290;2023-01-15T13:12:45;9.93;;;4.43;;
25231;SDS011;13176;51.140;6.290;2023-01-15T13:15:15;8.48;;;5.40;;
25231;SDS011;13176;51.140;6.290;2023-01-15T13:20:42;4.82;;;4.40;;
25231;SDS011;13176;51.140;6.290;2023-01-15T13:32:13;4.47;;;4.07;;
25231;SDS011;13176;51.140;6.290;2023-01-15T13:35:05;4.60;;;3.90;;
25231;SDS011;13176;51.140;6.290;2023-01-15T13:37:44;4.22;;;3.85;;
25231;SDS011;13176;51.140;6.290;2023-01-15T13:42:53;5.68;;;3.80;;
25231;SDS011;13176;51.140;6.290;2023-01-15T13:45:27;4.97;;;4.00;;
25231;SDS011;13176;51.140;6.290;2023-01-15T13:47:57;5.47;;;4.10;;
25231;SDS011;13176;51.140;6.290;2023-01-15T13:50:30;5.10;;;4.60;;
25231;SDS011;13176;51.140;6.290;2023-01-15T13:52:59;4.70;;;4.30;;
25231;SDS011;13176;51.140;6.290;2023-01-15T13:55:36;6.70;;;4.50;;
25231;SDS011;13176;51.140;6.290;2023-01-15T14:01:02;7.78;;;4.43;;
25231;SDS011;13176;51.140;6.290;2023-01-15T14:03:35;6.53;;;6.07;;
25231;SDS011;13176;51.140;6.290;2023-01-15T14:06:04;5.10;;;4.70;;
25231;SDS011;13176;51.140;6.290;2023-01-15T14:08:39;6.57;;;5.07;;
25231;SDS011;13176;51.140;6.290;2023-01-15T14:11:31;5.13;;;4.72;;
25231;SDS011;13176;51.140;6.290;2023-01-15T14:14:08;4.65;;;4.30;;
25231;SDS011;13176;51.140;6.290;2023-01-15T14:16:54;5.13;;;4.43;;
25231;SDS011;13176;51.140;6.290;2023-01-15T14:19:32;5.28;;;4.78;;
25231;SDS011;13176;51.140;6.290;2023-01-15T14:28:12;6.78;;;4.25;;
25231;SDS011;13176;51.140;6.290;2023-01-15T14:39:56;4.50;;;4.10;;
25231;SDS011;13176;51.140;6.290;2023-01-15T14:42:27;5.18;;;4.35;;
25231;SDS011;13176;51.140;6.290;2023-01-15T14:48:04;6.35;;;5.72;;
25231;SDS011;13176;51.140;6.290;2023-01-15T14:50:41;4.95;;;3.90;;
25231;SDS011;13176;51.140;6.290;2023-01-15T14:55:40;5.05;;;4.43;;
25231;SDS011;13176;51.140;6.290;2023-01-15T14:58:16;4.63;;;4.20;;
25231;SDS011;13176;51.140;6.290;2023-01-15T15:00:57;4.30;;;3.88;;
25231;SDS011;13176;51.140;6.290;2023-01-15T15:03:40;4.60;;;4.20;;
25231;SDS011;13176;51.140;6.290;2023-01-15T15:06:31;4.55;;;4.15;;
25231;SDS011;13176;51.140;6.290;2023-01-15T15:13:13;7.35;;;4.35;;
25231;SDS011;13176;51.140;6.290;2023-01-15T15:15:53;7.00;;;4.43;;
25231;SDS011;13176;51.140;6.290;2023-01-15T15:21:19;6.25;;;5.85;;
25231;SDS011;13176;51.140;6.290;2023-01-15T15:26:41;4.40;;;4.13;;
25231;SDS011;13176;51.140;6.290;2023-01-15T15:31:35;5.13;;;4.05;;
25231;SDS011;13176;51.140;6.290;2023-01-15T15:34:04;4.22;;;3.92;;
25231;SDS011;13176;51.140;6.290;2023-01-15T15:36:33;4.10;;;3.72;;
25231;SDS011;13176;51.140;6.290;2023-01-15T15:42:40;5.18;;;3.85;;
25231;SDS011;13176;51.140;6.290;2023-01-15T15:45:31;4.72;;;4.20;;
25231;SDS011;13176;51.140;6.290;2023-01-15T15:48:29;6.95;;;5.05;;
25231;SDS011;13176;51.140;6.290;2023-01-15T15:51:37;4.82;;;3.60;;
25231;SDS011;13176;51.140;6.290;2023-01-15T15:54:12;4.90;;;4.43;;
25231;SDS011;13176;51.140;6.290;2023-01-15T15:59:28;5.53;;;5.10;;
25231;SDS011;13176;51.140;6.290;2023-01-15T16:01:55;4.28;;;3.85;;
25231;SDS011;13176;51.140;6.290;2023-01-15T16:04:24;5.07;;;4.57;;
25231;SDS011;13176;51.140;6.290;2023-01-15T16:06:52;4.60;;;4.20;;
25231;SDS011;13176;51.140;6.290;2023-01-15T16:09:19;9.43;;;8.40;;
25231;SDS011;13176;51.140;6.290;2023-01-15T16:11:52;4.60;;;4.20;;
25231;SDS011;13176;51.140;6.290;2023-01-15T16:14:19;4.20;;;3.80;;
25231;SDS011;13176;51.140;6.290;2023-01-15T16:16:47;5.68;;;4.80;;
25231;SDS011;13176;51.140;6.290;2023-01-15T16:19:20;4.45;;;3.67;;
25231;SDS011;13176;51.140;6.290;2023-01-15T16:21:50;5.03;;;4.60;;
25231;SDS011;13176;51.140;6.290;2023-01-15T16:24:25;5.15;;;4.65;;
25231;SDS011;13176;51.140;6.290;2023-01-15T16:26:56;5.25;;;4.75;;
25231;SDS011;13176;51.140;6.290;2023-01-15T16:29:27;4.47;;;4.07;;
25231;SDS011;13176;51.140;6.290;2023-01-15T16:31:55;4.30;;;4.10;;
25231;SDS011;13176;51.140;6.290;2023-01-15T16:34:31;6.05;;;3.88;;
25231;SDS011;13176;51.140;6.290;2023-01-15T16:36:59;5.45;;;3.65;;
25231;SDS011;13176;51.140;6.290;2023-01-15T16:39:38;6.07;;;3.97;;
25231;SDS011;13176;51.140;6.290;2023-01-15T16:42:24;5.00;;;4.30;;
25231;SDS011;13176;51.140;6.290;2023-01-15T16:45:29;4.07;;;3.80;;
25231;SDS011;13176;51.140;6.290;2023-01-15T16:50:50;5.07;;;4.53;;
25231;SDS011;13176;51.140;6.290;2023-01-15T16:56:01;4.57;;;4.25;;
25231;SDS011;13176;51.140;6.290;2023-01-15T16:58:32;5.15;;;4.78;;
25231;SDS011;13176;51.140;6.290;2023-01-15T17:01:01;5.32;;;4.90;;
25231;SDS011;13176;51.140;6.290;2023-01-15T17:04:03;6.93;;;5.25;;
25231;SDS011;13176;51.140;6.290;2023-01-15T17:06:52;5.25;;;4.80;;
25231;SDS011;13176;51.140;6.290;2023-01-15T17:09:21;5.22;;;4.68;;
25231;SDS011;13176;51.140;6.290;2023-01-15T17:11:48;5.45;;;4.95;;
25231;SDS011;13176;51.140;6.290;2023-01-15T17:14:18;7.07;;;6.63;;
25231;SDS011;13176;51.140;6.290;2023-01-15T17:16:47;5.50;;;5.10;;
25231;SDS011;13176;51.140;6.290;2023-01-15T17:19:33;5.70;;;5.30;;
25231;SDS011;13176;51.140;6.290;2023-01-15T17:22:00;5.90;;;5.30;;
25231;SDS011;13176;51.140;6.290;2023-01-15T17:24:26;7.03;;;5.75;;
25231;SDS011;13176;51.140;6.290;2023-01-15T17:26:53;5.85;;;5.10;;
25231;SDS011;13176;51.140;6.290;2023-01-15T17:29:19;5.95;;;5.40;;